sensor_id;sensor_type;location;lat;lon;timestamp;pressure;altitude;pressure_sealevel;temperature;humidity
62122;BME280;48108;47.532;19.084;2022-09-09T04:05:58;100174.69;;;15.78;100.00
62122;BME280;48108;47.532;19.084;2022-09-09T04:09:10;100170.31;;;15.77;100.00
62122;BME280;48108;47.532;19.084;2022-09-09T04:12:17;100175.06;;;15.82;100.00
62122;BME280;48108;47.532;19.084;2022-09-09T04:15:20;100177.59;;;15.83;100.00
62122;BME280;48108;47.532;19.084;2022-09-09T04:18:23;100174.25;;;15.81;100.00
62122;BME280;48108;47.532;19.084;2022-09-09T04:21:27;100172.37;;;15.82;100.00
62122;BME280;48108;47.532;19.084;2022-09-09T04:24:29;100185.28;;;15.86;100.00
62122;BME280;48108;47.532;19.084;2022-09-09T04:27:33;100189.72;;;15.81;100.00
62122;BME280;48108;47.532;19.084;2022-09-09T04:30:36;100181.78;;;15.79;100.00
62122;BME280;48108;47.532;19.084;2022-09-09T04:33:39;100182.63;;;15.80;100.00
62122;BME280;48108;47.532;19.084;2022-09-09T04:36:42;100184.28;;;15.81;100.00
62122;BME280;48108;47.532;19.084;2022-09-09T04:39:45;100186.78;;;15.82;100.00
62122;BME280;48108;47.532;19.084;2022-09-09T04:42:48;100180.94;;;15.85;100.00
62122;BME280;48108;47.532;19.084;2022-09-09T04:49:58;100176.72;;;15.90;100.00
62122;BME280;48108;47.532;19.084;2022-09-09T04:53:02;100165.22;;;15.94;100.00
62122;BME280;48108;47.532;19.084;2022-09-09T05:03:23;100166.78;;;16.08;100.00
62122;BME280;48108;47.532;19.084;2022-09-09T05:06:26;100170.28;;;16.16;100.00
62122;BME280;48108;47.532;19.084;2022-09-09T05:13:35;100182.78;;;16.23;100.00
62122;BME280;48108;47.532;19.084;2022-09-09T05:16:46;100186.47;;;16.29;100.00
62122;BME280;48108;47.532;19.084;2022-09-09T05:19:49;100188.38;;;16.28;100.00
62122;BME280;48108;47.532;19.084;2022-09-09T05:26:55;100182.03;;;16.41;100.00
62122;BME280;48108;47.532;19.084;2022-09-09T05:30:01;100182.97;;;16.53;100.00
62122;BME280;48108;47.532;19.084;2022-09-09T05:33:04;100187.72;;;16.58;100.00
62122;BME280;48108;47.532;19.084;2022-09-09T05:36:11;100185.09;;;16.76;100.00
62122;BME280;48108;47.532;19.084;2022-09-09T05:39:16;100202.34;;;16.89;100.00
62122;BME280;48108;47.532;19.084;2022-09-09T05:42:29;100198.50;;;16.96;100.00
62122;BME280;48108;47.532;19.084;2022-09-09T05:45:33;100195.03;;;17.08;100.00
62122;BME280;48108;47.532;19.084;2022-09-09T05:48:39;100197.53;;;17.09;100.00
62122;BME280;48108;47.532;19.084;2022-09-09T05:55:14;100189.37;;;17.28;100.00
62122;BME280;48108;47.532;19.084;2022-09-09T05:58:20;100193.41;;;17.43;100.00
62122;BME280;48108;47.532;19.084;2022-09-09T06:01:29;100186.22;;;17.49;100.00
62122;BME280;48108;47.532;19.084;2022-09-09T06:04:33;100184.22;;;17.56;100.00
62122;BME280;48108;47.532;19.084;2022-09-09T06:07:36;100188.91;;;17.67;100.00
62122;BME280;48108;47.532;19.084;2022-09-09T06:14:47;100194.03;;;17.94;100.00
62122;BME280;48108;47.532;19.084;2022-09-09T06:21:55;100194.41;;;18.51;100.00
62122;BME280;48108;47.532;19.084;2022-09-09T06:37:16;100206.34;;;18.92;95.60
62122;BME280;48108;47.532;19.084;2022-09-09T06:40:20;100202.31;;;19.07;93.71
62122;BME280;48108;47.532;19.084;2022-09-09T06:43:23;100197.44;;;19.20;91.32
62122;BME280;48108;47.532;19.084;2022-09-09T06:46:28;100195.41;;;19.39;91.81
62122;BME280;48108;47.532;19.084;2022-09-09T06:49:35;100197.53;;;19.49;90.05
62122;BME280;48108;47.532;19.084;2022-09-09T06:52:38;100191.31;;;19.65;87.68
62122;BME280;48108;47.532;19.084;2022-09-09T06:55:47;100199.13;;;19.74;88.50
62122;BME280;48108;47.532;19.084;2022-09-09T06:59:12;100201.00;;;19.85;87.72
62122;BME280;48108;47.532;19.084;2022-09-09T07:10:16;100209.50;;;19.60;86.13
62122;BME280;48108;47.532;19.084;2022-09-09T07:32:53;100209.91;;;19.16;92.08
62122;BME280;48108;47.532;19.084;2022-09-09T07:36:04;100215.00;;;19.13;92.39
62122;BME280;48108;47.532;19.084;2022-09-09T07:43:03;100227.41;;;19.56;89.96
62122;BME280;48108;47.532;19.084;2022-09-09T07:46:07;100230.66;;;19.93;87.96
62122;BME280;48108;47.532;19.084;2022-09-09T07:49:11;100235.56;;;20.20;85.87
62122;BME280;48108;47.532;19.084;2022-09-09T07:52:16;100238.56;;;20.35;83.08
62122;BME280;48108;47.532;19.084;2022-09-09T08:03:31;100237.78;;;20.51;80.35
62122;BME280;48108;47.532;19.084;2022-09-09T08:06:48;100233.72;;;20.71;82.63
62122;BME280;48108;47.532;19.084;2022-09-09T08:09:52;100227.13;;;20.83;79.69
62122;BME280;48108;47.532;19.084;2022-09-09T08:12:57;100225.84;;;20.91;79.70
62122;BME280;48108;47.532;19.084;2022-09-09T08:16:28;100236.87;;;21.13;79.87
62122;BME280;48108;47.532;19.084;2022-09-09T08:27:45;100236.16;;;21.57;78.44
62122;BME280;48108;47.532;19.084;2022-09-09T08:30:50;100233.09;;;21.75;78.21
62122;BME280;48108;47.532;19.084;2022-09-09T08:33:58;100231.28;;;21.64;72.41
62122;BME280;48108;47.532;19.084;2022-09-09T08:37:07;100229.00;;;21.56;72.70
62122;BME280;48108;47.532;19.084;2022-09-09T08:56:45;100226.25;;;22.22;70.24
62122;BME280;48108;47.532;19.084;2022-09-09T08:59:50;100233.63;;;22.48;71.12
62122;BME280;48108;47.532;19.084;2022-09-09T09:03:22;100227.75;;;22.67;69.19
62122;BME280;48108;47.532;19.084;2022-09-09T09:09:51;100222.06;;;22.78;66.15
62122;BME280;48108;47.532;19.084;2022-09-09T09:13:02;100221.25;;;23.10;67.49
62122;BME280;48108;47.532;19.084;2022-09-09T09:16:39;100219.56;;;23.04;65.20
62122;BME280;48108;47.532;19.084;2022-09-09T09:19:46;100215.94;;;22.98;67.02
62122;BME280;48108;47.532;19.084;2022-09-09T09:22:52;100217.06;;;22.97;65.88
62122;BME280;48108;47.532;19.084;2022-09-09T09:26:00;100221.72;;;22.97;67.73
62122;BME280;48108;47.532;19.084;2022-09-09T09:29:15;100221.66;;;23.29;67.54
62122;BME280;48108;47.532;19.084;2022-09-09T09:32:19;100201.66;;;23.44;66.12
62122;BME280;48108;47.532;19.084;2022-09-09T09:35:23;100201.16;;;23.52;62.05
62122;BME280;48108;47.532;19.084;2022-09-09T09:38:27;100197.91;;;23.65;61.64
62122;BME280;48108;47.532;19.084;2022-09-09T09:41:52;100194.19;;;23.97;61.48
62122;BME280;48108;47.532;19.084;2022-09-09T09:49:04;100182.34;;;23.91;60.24
62122;BME280;48108;47.532;19.084;2022-09-09T09:56:28;100189.56;;;24.33;57.67
62122;BME280;48108;47.532;19.084;2022-09-09T10:06:36;100205.59;;;24.47;56.12
62122;BME280;48108;47.532;19.084;2022-09-09T10:09:40;100201.19;;;24.61;55.33
62122;BME280;48108;47.532;19.084;2022-09-09T10:12:50;100191.53;;;24.69;53.83
62122;BME280;48108;47.532;19.084;2022-09-09T13:15:19;100070.78;;;41.27;20.61
62122;BME280;48108;47.532;19.084;2022-09-09T13:19:16;100068.13;;;40.93;19.94
62122;BME280;48108;47.532;19.084;2022-09-09T13:22:43;100062.56;;;40.60;19.54
62122;BME280;48108;47.532;19.084;2022-09-09T13:37:38;100055.50;;;33.85;27.01
62122;BME280;48108;47.532;19.084;2022-09-09T13:41:18;100054.81;;;32.22;30.08
62122;BME280;48108;47.532;19.084;2022-09-09T13:44:27;100059.69;;;31.12;31.50
62122;BME280;48108;47.532;19.084;2022-09-09T13:47:35;100054.69;;;30.83;31.72
62122;BME280;48108;47.532;19.084;2022-09-09T13:50:38;100059.28;;;29.89;33.29
62122;BME280;48108;47.532;19.084;2022-09-09T13:53:41;100064.66;;;29.35;36.09
62122;BME280;48108;47.532;19.084;2022-09-09T13:56:44;100053.81;;;29.25;33.76
62122;BME280;48108;47.532;19.084;2022-09-09T13:59:48;100056.66;;;28.92;34.30
62122;BME280;48108;47.532;19.084;2022-09-09T14:03:15;100039.44;;;28.82;34.52
62122;BME280;48108;47.532;19.084;2022-09-09T14:06:17;100045.38;;;28.89;36.15
62122;BME280;48108;47.532;19.084;2022-09-09T14:09:21;100041.03;;;29.38;35.14
62122;BME280;48108;47.532;19.084;2022-09-09T14:12:24;100030.28;;;29.73;33.13
62122;BME280;48108;47.532;19.084;2022-09-09T14:19:20;100022.19;;;28.71;35.12
62122;BME280;48108;47.532;19.084;2022-09-09T14:22:24;100020.66;;;28.51;35.81
62122;BME280;48108;47.532;19.084;2022-09-09T14:25:26;100016.13;;;28.09;35.93
62122;BME280;48108;47.532;19.084;2022-09-09T14:28:30;100011.44;;;27.90;37.94
62122;BME280;48108;47.532;19.084;2022-09-09T14:31:55;100023.13;;;27.68;36.37
62122;BME280;48108;47.532;19.084;2022-09-09T14:34:58;100030.00;;;27.52;37.70
62122;BME280;48108;47.532;19.084;2022-09-09T14:38:21;100024.13;;;27.21;38.15
62122;BME280;48108;47.532;19.084;2022-09-09T14:53:25;100020.84;;;27.56;39.01
62122;BME280;48108;47.532;19.084;2022-09-09T15:04:41;100018.69;;;27.10;37.75
62122;BME280;48108;47.532;19.084;2022-09-09T15:07:46;100012.75;;;26.98;40.96
62122;BME280;48108;47.532;19.084;2022-09-09T15:14:56;100011.66;;;26.75;40.66
62122;BME280;48108;47.532;19.084;2022-09-09T15:22:19;100032.41;;;26.43;36.80
62122;BME280;48108;47.532;19.084;2022-09-09T15:29:24;100022.78;;;26.41;39.12
62122;BME280;48108;47.532;19.084;2022-09-09T15:32:28;100019.31;;;26.30;38.74
62122;BME280;48108;47.532;19.084;2022-09-09T15:35:30;100013.53;;;26.27;38.46
62122;BME280;48108;47.532;19.084;2022-09-09T15:42:35;100018.31;;;26.21;40.77
62122;BME280;48108;47.532;19.084;2022-09-09T15:53:11;100012.28;;;26.14;40.27
62122;BME280;48108;47.532;19.084;2022-09-09T15:56:13;100017.41;;;25.96;40.71
62122;BME280;48108;47.532;19.084;2022-09-09T15:59:19;100017.78;;;25.79;41.54
